createdAt,value
2019-04-05T00:00:09.471Z,97430.23
2019-04-05T00:02:38.973Z,97429.34
2019-04-05T00:05:08.541Z,97427.61
2019-04-05T00:07:37.953Z,97426.33
2019-04-05T00:10:07.903Z,97424.14
2019-04-05T00:12:37.293Z,97421.11
2019-04-05T00:15:15.216Z,97419.83
2019-04-05T00:17:38.755Z,97423.72
2019-04-05T00:20:09.040Z,97425.03
2019-04-05T00:22:38.438Z,97424.16
2019-04-05T00:25:08.099Z,97418.52
2019-04-05T00:27:37.571Z,97421.55
2019-04-05T00:30:08.721Z,97417.64
2019-04-05T00:32:38.155Z,97412.44
2019-04-05T00:35:08.595Z,97408.56
2019-04-05T00:37:38.002Z,97412.44
2019-04-05T00:40:09.911Z,97413.75
2019-04-05T00:42:39.318Z,97414.19
2019-04-05T00:45:09.266Z,97413.30
2019-04-05T00:47:38.752Z,97402.03
2019-04-05T00:50:08.953Z,97409.42
2019-04-05T00:52:38.391Z,97408.55
2019-04-05T00:55:08.950Z,97411.13
2019-04-05T00:57:38.362Z,97405.95
2019-04-05T01:00:08.225Z,97407.25
2019-04-05T01:02:37.725Z,97403.77
2019-04-05T01:05:08.288Z,97405.08
2019-04-05T01:07:37.819Z,97412.88
2019-04-05T01:10:07.988Z,97404.23
2019-04-05T01:12:39.397Z,97408.98
2019-04-05T01:15:10.897Z,97405.50
2019-04-05T01:17:40.469Z,97409.86
2019-04-05T01:20:10.729Z,97407.23
2019-04-05T01:22:41.498Z,97402.06
2019-04-05T01:25:11.088Z,97408.97
2019-04-05T01:27:41.527Z,97389.88
2019-04-05T01:30:17.240Z,97394.25
2019-04-05T01:32:47.312Z,97396.84
2019-04-05T01:35:16.799Z,97397.72
2019-04-05T01:37:46.835Z,97402.05
2019-04-05T01:40:16.520Z,97403.78
2019-04-05T01:42:46.698Z,97394.66
2019-04-05T01:45:16.134Z,97391.64
2019-04-05T01:47:45.528Z,97394.69
2019-04-05T01:50:16.191Z,97393.81
2019-04-05T01:52:46.331Z,97390.76
2019-04-05T01:55:15.800Z,97393.80
2019-04-05T01:57:45.192Z,97395.09
2019-04-05T02:00:14.954Z,97388.61
2019-04-05T02:02:44.417Z,97392.05
2019-04-05T02:05:14.246Z,97395.09
2019-04-05T02:07:43.804Z,97403.74
2019-04-05T02:10:13.963Z,97402.03
2019-04-05T02:12:43.374Z,97405.94
2019-04-05T02:15:18.575Z,97412.41
2019-04-05T02:17:48.047Z,97408.52
2019-04-05T02:20:17.661Z,97425.45
2019-04-05T02:22:47.076Z,97416.78
2019-04-05T02:25:16.467Z,97415.92
2019-04-05T02:27:45.881Z,97419.83
2019-04-05T02:30:15.830Z,97416.77
2019-04-05T02:32:45.416Z,97423.30
2019-04-05T02:35:14.925Z,97422.41
2019-04-05T02:37:44.573Z,97426.77
2019-04-05T02:40:16.363Z,97433.69
2019-04-05T02:42:47.722Z,97441.05
2019-04-05T02:45:18.984Z,97431.09
2019-04-05T02:47:57.414Z,97430.67
2019-04-05T02:50:29.864Z,97432.41
2019-04-05T02:53:02.345Z,97431.95
2019-04-05T02:55:32.788Z,97430.20
2019-04-05T02:58:03.516Z,97431.52
2019-04-05T03:00:34.018Z,97429.78
2019-04-05T03:03:05.540Z,97431.97
2019-04-05T03:05:36.387Z,97437.59
2019-04-05T03:08:06.751Z,97437.16
2019-04-05T03:10:47.850Z,97432.83
2019-04-05T03:13:17.409Z,97427.19
2019-04-05T03:15:47.052Z,97435.43
2019-04-05T03:18:16.815Z,97428.92
2019-04-05T03:20:46.442Z,97435.84
2019-04-05T03:23:15.947Z,97436.28
2019-04-05T03:25:48.178Z,97441.48
2019-04-05T03:28:18.307Z,97444.09
2019-04-05T03:30:48.252Z,97436.30
2019-04-05T03:33:17.836Z,97439.33
2019-04-05T03:35:47.302Z,97432.41
2019-04-05T03:38:17.761Z,97441.94
2019-04-05T03:40:48.589Z,97435.01
2019-04-05T03:43:18.260Z,97440.62
2019-04-05T03:45:47.737Z,97432.37
2019-04-05T03:48:17.592Z,97438.91
2019-04-05T03:50:47.324Z,97437.16
2019-04-05T03:53:16.986Z,97437.61
2019-04-05T03:55:46.451Z,97437.59
2019-04-05T03:58:16.039Z,97444.54
2019-04-05T04:00:45.711Z,97441.52
2019-04-05T04:03:15.316Z,97431.09
2019-04-05T04:05:45.032Z,97439.33
2019-04-05T04:08:14.707Z,97434.58
2019-04-05T04:10:44.198Z,97434.98
2019-04-05T04:13:13.862Z,97436.30
2019-04-05T04:15:43.511Z,97431.52
2019-04-05T04:18:13.032Z,97432.38
2019-04-05T04:20:48.636Z,97433.24
2019-04-05T04:23:20.627Z,97427.17
2019-04-05T04:25:51.481Z,97424.13
2019-04-05T04:28:21.440Z,97418.90
2019-04-05T04:30:51.095Z,97415.42
2019-04-05T04:33:20.828Z,97415.42
2019-04-05T04:35:51.270Z,97417.16
2019-04-05T04:38:20.763Z,97413.68
2019-04-05T04:40:50.402Z,97420.17
2019-04-05T04:43:20.863Z,97427.55
2019-04-05T04:45:50.590Z,97429.27
2019-04-05T04:48:20.037Z,97431.87
2019-04-05T04:50:49.673Z,97435.33
2019-04-05T04:53:19.626Z,97440.11
2019-04-05T04:55:49.269Z,97439.27
2019-04-05T04:58:19.229Z,97443.59
2019-04-05T05:00:48.810Z,97435.81
2019-04-05T05:03:18.668Z,97438.43
2019-04-05T05:05:48.333Z,97441.91
2019-04-05T05:08:18.396Z,97436.27
2019-04-05T05:10:48.343Z,97435.86
2019-04-05T05:13:18.007Z,97432.38
2019-04-05T05:15:47.744Z,97435.84
2019-04-05T05:18:17.409Z,97426.32
2019-04-05T05:20:46.881Z,97431.52
2019-04-05T05:23:16.447Z,97439.78
2019-04-05T05:25:47.025Z,97436.73
2019-04-05T05:28:16.977Z,97436.30
2019-04-05T05:30:46.616Z,97438.89
2019-04-05T05:33:16.112Z,97432.84
2019-04-05T05:35:45.689Z,97439.77
2019-04-05T05:38:15.352Z,97441.94
2019-04-05T05:40:44.758Z,97452.34
2019-04-05T05:43:14.164Z,97447.56
2019-04-05T05:45:43.572Z,97443.67
2019-04-05T05:48:13.391Z,97448.86
2019-04-05T05:50:43.784Z,97448.45
2019-04-05T05:53:13.558Z,97451.48
2019-04-05T05:55:42.981Z,97456.23
2019-04-05T05:58:12.398Z,97459.27
2019-04-05T06:00:41.810Z,97458.40
2019-04-05T06:03:12.061Z,97461.44
2019-04-05T06:05:43.347Z,97465.79
2019-04-05T06:08:12.859Z,97462.31
2019-04-05T06:10:42.261Z,97466.20
2019-04-05T06:13:11.660Z,97464.02
2019-04-05T06:15:41.095Z,97466.61
2019-04-05T06:18:12.681Z,97461.42
2019-04-05T06:20:42.545Z,97463.16
2019-04-05T06:23:11.975Z,97467.47
2019-04-05T06:25:41.386Z,97467.89
2019-04-05T06:28:10.885Z,97466.19
2019-04-05T06:30:40.279Z,97464.84
2019-04-05T06:33:09.709Z,97471.37
2019-04-05T06:35:39.117Z,97472.66
2019-04-05T06:38:08.535Z,97467.45
2019-04-05T06:40:40.973Z,97464.42
2019-04-05T06:43:09.050Z,97465.23
2019-04-05T06:45:38.445Z,97465.21
2019-04-05T06:48:18.568Z,97471.70
2019-04-05T06:50:38.983Z,97473.86
2019-04-05T06:53:08.409Z,97473.82
2019-04-05T06:55:37.815Z,97472.55
2019-04-05T06:58:10.236Z,97471.20
2019-04-05T07:00:38.408Z,97474.30
2019-04-05T07:03:07.829Z,97479.94
2019-04-05T07:05:37.232Z,97472.47
2019-04-05T07:08:06.651Z,97468.03
2019-04-05T07:10:36.055Z,97468.83
2019-04-05T07:13:05.780Z,97464.83
2019-04-05T07:15:35.230Z,97458.09
2019-04-05T07:18:04.833Z,97465.79
2019-04-05T07:20:34.235Z,97461.14
2019-04-05T07:23:03.632Z,97461.95
2019-04-05T07:25:33.216Z,97462.48
2019-04-05T07:28:02.634Z,97464.56
2019-04-05T07:30:32.758Z,97467.42
2019-04-05T07:33:02.239Z,97468.05
2019-04-05T07:35:33.709Z,97475.22
2019-04-05T07:38:03.479Z,97476.30
2019-04-05T07:40:32.902Z,97478.86
2019-04-05T07:43:02.290Z,97484.83
2019-04-05T07:45:31.730Z,97475.06
2019-04-05T07:48:01.244Z,97473.95
2019-04-05T07:50:30.700Z,97476.31
2019-04-05T07:53:00.111Z,97470.69
2019-04-05T07:55:29.534Z,97474.88
2019-04-05T07:57:58.932Z,97470.41
2019-04-05T08:00:43.667Z,97467.17
2019-04-05T08:03:13.140Z,97466.58
2019-04-05T08:05:42.999Z,97463.89
2019-04-05T08:08:15.453Z,97465.63
2019-04-05T08:10:45.758Z,97460.30
2019-04-05T08:13:17.064Z,97455.22
2019-04-05T08:15:46.496Z,97455.04
2019-04-05T08:18:15.900Z,97454.77
2019-04-05T08:20:45.319Z,97453.95
2019-04-05T08:23:14.724Z,97451.44
2019-04-05T08:25:44.153Z,97449.72
2019-04-05T08:28:13.563Z,97447.37
2019-04-05T08:30:43.087Z,97449.72
2019-04-05T08:33:12.516Z,97447.04
2019-04-05T08:35:42.111Z,97441.48
2019-04-05T08:38:11.582Z,97435.19
2019-04-05T08:40:41.013Z,97428.55
2019-04-05T08:43:10.497Z,97434.10
2019-04-05T08:45:40.019Z,97436.80
2019-04-05T08:48:09.596Z,97430.60
2019-04-05T08:50:39.033Z,97431.30
2019-04-05T08:53:08.453Z,97431.60
2019-04-05T08:55:37.936Z,97422.52
2019-04-05T08:58:07.332Z,97408.42
2019-04-05T09:00:36.769Z,97410.13
2019-04-05T09:03:06.243Z,97398.34
2019-04-05T09:05:35.746Z,97394.69
2019-04-05T09:08:05.225Z,97390.95
2019-04-05T09:10:34.827Z,97389.52
2019-04-05T09:13:04.234Z,97382.67
2019-04-05T09:15:33.666Z,97385.83
2019-04-05T09:18:03.147Z,97384.75
2019-04-05T09:20:32.565Z,97382.13
2019-04-05T09:23:02.109Z,97383.44
2019-04-05T09:25:31.581Z,97379.37
2019-04-05T09:28:00.996Z,97385.56
2019-04-05T09:30:30.436Z,97384.98
2019-04-05T09:32:59.857Z,97388.68
2019-04-05T09:35:29.278Z,97389.13
2019-04-05T09:37:58.703Z,97383.91
2019-04-05T09:40:28.146Z,97395.08
2019-04-05T09:42:57.528Z,97384.44
2019-04-05T09:45:26.951Z,97382.79
2019-04-05T09:47:56.360Z,97378.19
2019-04-05T09:50:25.801Z,97378.23
2019-04-05T09:52:55.280Z,97374.16
2019-04-05T09:55:24.709Z,97374.27
2019-04-05T09:57:54.116Z,97377.03
2019-04-05T10:00:25.341Z,97380.92
2019-04-05T10:02:54.835Z,97373.20
2019-04-05T10:05:24.262Z,97362.14
2019-04-05T10:07:55.398Z,97361.24
2019-04-05T10:10:24.778Z,97355.18
2019-04-05T10:12:54.260Z,97347.49
2019-04-05T10:15:23.696Z,97342.70
2019-04-05T10:17:53.298Z,97340.31
2019-04-05T10:20:22.718Z,97337.38
2019-04-05T10:22:52.122Z,97332.29
2019-04-05T10:25:21.554Z,97334.31
2019-04-05T10:27:50.961Z,97332.23
2019-04-05T10:30:20.704Z,97326.94
2019-04-05T10:32:50.110Z,97332.09
2019-04-05T10:35:19.558Z,97328.02
2019-04-05T10:37:48.958Z,97330.16
2019-04-05T10:40:18.612Z,97333.70
2019-04-05T10:42:48.017Z,97331.44
2019-04-05T10:45:17.603Z,97329.33
2019-04-05T10:47:47.068Z,97336.15
2019-04-05T10:50:17.028Z,97331.88
2019-04-05T10:52:46.453Z,97335.69
2019-04-05T10:55:16.103Z,97338.66
2019-04-05T10:57:45.887Z,97332.77
2019-04-05T11:00:17.357Z,97336.36
2019-04-05T11:02:46.763Z,97334.39
2019-04-05T11:05:16.548Z,97341.77
2019-04-05T11:07:45.976Z,97334.72
2019-04-05T11:10:17.497Z,97330.73
2019-04-05T11:12:49.736Z,97327.87
2019-04-05T11:15:18.379Z,97320.03
2019-04-05T11:17:47.888Z,97323.38
2019-04-05T11:20:21.946Z,97322.83
2019-04-05T11:22:50.162Z,97330.59
2019-04-05T11:25:20.982Z,97319.84
2019-04-05T11:27:50.674Z,97326.42
2019-04-05T11:30:39.895Z,97325.50
2019-04-05T11:33:09.511Z,97327.66
2019-04-05T11:35:39.313Z,97324.84
2019-04-05T11:38:08.769Z,97327.03
2019-04-05T11:40:38.909Z,97324.68
2019-04-05T11:43:08.317Z,97320.98
2019-04-05T11:45:37.785Z,97317.59
2019-04-05T11:48:08.135Z,97321.00
2019-04-05T11:51:11.776Z,97315.86
2019-04-05T11:53:41.237Z,97306.28
2019-04-05T11:56:15.009Z,97306.28
2019-04-05T11:58:43.400Z,97297.14
2019-04-05T12:01:26.771Z,97303.87
2019-04-05T12:03:56.158Z,97303.19
2019-04-05T12:06:25.570Z,97299.19
2019-04-05T12:08:59.315Z,97299.02
2019-04-05T12:11:28.595Z,97296.66
2019-04-05T12:13:58.028Z,97296.59
2019-04-05T12:16:27.428Z,97296.80
2019-04-05T12:18:58.894Z,97287.80
2019-04-05T12:21:27.929Z,97291.22
2019-04-05T12:23:57.318Z,97284.00
2019-04-05T12:26:26.744Z,97280.78
2019-04-05T12:28:56.155Z,97285.08
2019-04-05T12:31:26.646Z,97278.84
2019-04-05T12:33:56.061Z,97279.17
2019-04-05T12:36:25.476Z,97274.03
2019-04-05T12:38:54.886Z,97269.45
2019-04-05T12:41:24.294Z,97271.64
2019-04-05T12:43:53.703Z,97273.97
2019-04-05T12:46:23.269Z,97271.46
2019-04-05T12:48:52.673Z,97274.16
2019-04-05T12:51:22.078Z,97280.09
2019-04-05T12:53:51.493Z,97284.05
2019-04-05T12:56:20.988Z,97275.59
2019-04-05T12:58:50.433Z,97285.84
2019-04-05T13:01:19.818Z,97281.30
2019-04-05T13:03:51.141Z,97286.53
2019-04-05T13:06:21.752Z,97277.98
2019-04-05T13:08:51.642Z,97278.13
2019-04-05T13:11:25.935Z,97273.88
2019-04-05T13:13:54.385Z,97275.77
2019-04-05T13:16:24.783Z,97276.81
2019-04-05T13:18:54.307Z,97276.36
2019-04-05T13:21:27.397Z,97273.94
2019-04-05T13:23:54.866Z,97269.30
2019-04-05T13:26:26.396Z,97269.88
2019-04-05T13:28:55.409Z,97265.51
2019-04-05T13:31:24.813Z,97261.42
2019-04-05T13:33:55.174Z,97263.81
2019-04-05T13:36:24.988Z,97257.63
2019-04-05T13:38:55.295Z,97253.38
2019-04-05T13:41:24.847Z,97249.95
2019-04-05T13:43:54.285Z,97247.09
2019-04-05T13:46:26.135Z,97239.41
2019-04-05T13:48:54.812Z,97240.07
2019-04-05T13:51:28.244Z,97238.08
2019-04-05T13:53:55.335Z,97244.09
2019-04-05T13:56:24.730Z,97240.43
2019-04-05T13:58:54.164Z,97239.70
2019-04-05T14:01:23.559Z,97239.11
2019-04-05T14:03:52.978Z,97237.97
2019-04-05T14:06:22.371Z,97238.75
2019-04-05T14:08:51.784Z,97240.16
2019-04-05T14:11:21.184Z,97236.77
2019-04-05T14:13:50.620Z,97239.73
2019-04-05T14:16:20.064Z,97239.72
2019-04-05T14:18:49.932Z,97235.20
2019-04-05T14:21:22.247Z,97241.92
2019-04-05T14:23:51.317Z,97243.83
2019-04-05T14:26:21.696Z,97240.42
2019-04-05T14:28:52.969Z,97242.44
2019-04-05T14:31:22.218Z,97241.80
2019-04-05T14:33:53.965Z,97237.22
2019-04-05T14:36:29.436Z,97237.70
2019-04-05T14:38:59.286Z,97240.50
2019-04-05T14:41:28.652Z,97243.59
2019-04-05T14:43:58.086Z,97243.61
2019-04-05T14:46:28.982Z,97241.20
2019-04-05T14:49:00.732Z,97242.95
2019-04-05T14:51:29.736Z,97253.00
2019-04-05T14:53:59.603Z,97250.63
2019-04-05T14:56:30.259Z,97254.98
2019-04-05T14:58:59.682Z,97257.16
2019-04-05T15:01:29.174Z,97254.55
2019-04-05T15:04:00.231Z,97251.80
2019-04-05T15:06:29.635Z,97253.41
2019-04-05T15:09:01.916Z,97252.20
2019-04-05T15:11:30.164Z,97254.31
2019-04-05T15:13:59.567Z,97251.78
2019-04-05T15:16:28.984Z,97252.90
2019-04-05T15:18:58.428Z,97251.38
2019-04-05T15:21:27.824Z,97252.59
2019-04-05T15:23:57.225Z,97252.83
2019-04-05T15:26:26.639Z,97253.52
2019-04-05T15:28:56.065Z,97257.84
2019-04-05T15:31:26.549Z,97254.70
2019-04-05T15:33:58.398Z,97259.43
2019-04-05T15:36:29.426Z,97256.09
2019-04-05T15:39:01.113Z,97253.30
2019-04-05T15:41:30.295Z,97255.38
2019-04-05T15:43:59.701Z,97251.16
2019-04-05T15:46:29.141Z,97252.47
2019-04-05T15:48:58.551Z,97253.72
2019-04-05T15:51:28.043Z,97246.23
2019-04-05T15:53:59.510Z,97244.35
2019-04-05T15:56:28.600Z,97245.28
2019-04-05T15:59:03.646Z,97251.06
2019-04-05T16:01:32.144Z,97250.46
2019-04-05T16:04:03.447Z,97246.58
2019-04-05T16:06:32.877Z,97249.98
2019-04-05T16:09:02.291Z,97249.02
2019-04-05T16:11:31.796Z,97250.66
2019-04-05T16:14:01.198Z,97244.98
2019-04-05T16:16:30.728Z,97242.95
2019-04-05T16:19:00.142Z,97247.25
2019-04-05T16:21:29.576Z,97246.55
2019-04-05T16:23:58.973Z,97240.67
2019-04-05T16:26:28.390Z,97244.08
2019-04-05T16:28:57.793Z,97241.51
2019-04-05T16:31:27.241Z,97251.52
2019-04-05T16:33:56.800Z,97238.33
2019-04-05T16:36:26.355Z,97249.72
2019-04-05T16:38:58.885Z,97254.05
2019-04-05T16:41:26.872Z,97258.53
2019-04-05T16:43:56.270Z,97257.58
2019-04-05T16:46:25.687Z,97259.80
2019-04-05T16:48:55.096Z,97256.09
2019-04-05T16:51:24.530Z,97251.75
2019-04-05T16:54:00.535Z,97260.52
2019-04-05T16:56:30.418Z,97263.17
2019-04-05T16:58:59.891Z,97266.91
2019-04-05T17:01:29.390Z,97267.33
2019-04-05T17:03:58.804Z,97264.48
2019-04-05T17:06:28.231Z,97273.56
2019-04-05T17:08:57.623Z,97273.33
2019-04-05T17:11:27.037Z,97269.45
2019-04-05T17:13:59.381Z,97270.97
2019-04-05T17:16:27.629Z,97271.28
2019-04-05T17:18:57.034Z,97275.84
2019-04-05T17:21:26.460Z,97277.09
2019-04-05T17:23:55.869Z,97275.84
2019-04-05T17:26:25.298Z,97273.07
2019-04-05T17:28:54.694Z,97281.02
2019-04-05T17:31:24.115Z,97284.64
2019-04-05T17:33:53.514Z,97287.43
2019-04-05T17:36:22.995Z,97283.23
2019-04-05T17:38:52.337Z,97281.59
2019-04-05T17:41:21.758Z,97277.92
2019-04-05T17:43:51.166Z,97285.86
2019-04-05T17:46:20.605Z,97285.88
2019-04-05T17:48:51.823Z,97292.45
2019-04-05T17:51:21.135Z,97291.00
2019-04-05T17:53:50.710Z,97288.95
2019-04-05T17:56:20.680Z,97295.59
2019-04-05T17:58:50.710Z,97298.75
2019-04-05T18:01:20.143Z,97292.81
2019-04-05T18:03:49.574Z,97300.06
2019-04-05T18:06:18.994Z,97303.39
2019-04-05T18:08:48.458Z,97303.47
2019-04-05T18:11:17.924Z,97302.20
2019-04-05T18:13:47.406Z,97307.23
2019-04-05T18:16:16.904Z,97310.01
2019-04-05T18:18:46.307Z,97311.25
2019-04-05T18:21:15.799Z,97307.58
2019-04-05T18:23:45.204Z,97309.41
2019-04-05T18:26:14.619Z,97303.81
2019-04-05T18:28:44.032Z,97300.80
2019-04-05T18:31:13.666Z,97306.77
2019-04-05T18:33:43.086Z,97307.63
2019-04-05T18:36:12.608Z,97310.47
2019-04-05T18:38:42.219Z,97313.13
2019-04-05T18:43:33.089Z,97300.42
2019-04-05T18:46:02.504Z,97303.95
2019-04-05T18:48:31.968Z,97310.52
2019-04-05T18:51:01.446Z,97309.53
2019-04-05T18:53:37.458Z,97309.55
2019-04-05T18:56:01.970Z,97316.34
2019-04-05T18:58:31.387Z,97317.22
2019-04-05T19:01:00.808Z,97317.73
2019-04-05T19:03:30.303Z,97319.58
2019-04-05T19:05:59.706Z,97318.38
2019-04-05T19:08:39.113Z,97324.38
2019-04-05T19:11:00.302Z,97330.20
2019-04-05T19:13:29.738Z,97327.00
2019-04-05T19:15:59.128Z,97327.00
2019-04-05T19:18:28.659Z,97326.69
2019-04-05T19:20:58.242Z,97332.08
2019-04-05T19:23:27.657Z,97319.41
2019-04-05T19:25:57.065Z,97324.50
2019-04-05T19:28:26.485Z,97322.94
2019-04-05T19:48:35.538Z,97327.14
2019-04-05T19:51:05.363Z,97325.11
2019-04-05T19:53:34.795Z,97323.14
2019-04-05T19:56:04.208Z,97329.69
2019-04-05T19:58:33.616Z,97325.16
2019-04-05T20:01:03.092Z,97326.19
2019-04-05T20:03:32.511Z,97323.14
2019-04-05T20:06:01.916Z,97323.94
2019-04-05T20:08:31.447Z,97319.56
2019-04-05T20:11:00.865Z,97326.12
2019-04-05T20:13:30.400Z,97330.84
2019-04-05T20:15:59.765Z,97333.92
2019-04-05T20:18:29.187Z,97331.30
2019-04-05T20:20:58.587Z,97337.00
2019-04-05T20:23:28.013Z,97336.61
2019-04-05T20:25:57.440Z,97333.18
2019-04-05T20:28:26.880Z,97338.88
2019-04-05T20:30:56.359Z,97341.28
2019-04-05T20:33:25.791Z,97342.58
2019-04-05T20:35:55.254Z,97341.48
2019-04-05T20:38:24.674Z,97341.86
2019-04-05T20:40:54.077Z,97349.86
2019-04-05T20:43:23.503Z,97342.38
2019-04-05T20:45:52.904Z,97332.03
2019-04-05T20:48:22.336Z,97338.78
2019-04-05T20:50:51.749Z,97331.67
2019-04-05T20:53:21.199Z,97328.76
2019-04-05T20:55:50.605Z,97326.58
2019-04-05T20:58:20.088Z,97318.25
2019-04-05T21:00:49.587Z,97318.77
2019-04-05T21:03:19.098Z,97321.84
2019-04-05T21:05:48.602Z,97321.38
2019-04-05T21:08:17.998Z,97327.52
2019-04-05T21:10:47.415Z,97328.89
2019-04-05T21:13:16.900Z,97334.51
2019-04-05T21:15:46.337Z,97328.84
2019-04-05T21:18:15.730Z,97322.77
2019-04-05T21:20:45.494Z,97327.14
2019-04-05T21:23:14.892Z,97318.71
2019-04-05T21:25:44.368Z,97319.16
2019-04-05T21:28:13.803Z,97317.91
2019-04-05T21:30:43.196Z,97325.33
2019-04-05T21:33:12.609Z,97320.09
2019-04-05T21:35:42.044Z,97321.83
2019-04-05T21:38:11.448Z,97329.03
2019-04-05T21:40:40.886Z,97329.05
2019-04-05T21:43:10.294Z,97334.73
2019-04-05T21:45:39.718Z,97335.23
2019-04-05T21:48:09.119Z,97328.76
2019-04-05T21:50:38.560Z,97330.00
2019-04-05T21:53:07.960Z,97325.27
2019-04-05T21:55:37.407Z,97332.73
2019-04-05T21:58:06.795Z,97333.54
2019-04-05T22:00:40.482Z,97330.92
2019-04-05T22:03:09.897Z,97333.94
2019-04-05T22:05:39.307Z,97335.80
2019-04-05T22:08:08.715Z,97331.92
2019-04-05T22:10:38.173Z,97330.61
2019-04-05T22:13:07.545Z,97331.06
2019-04-05T22:15:36.974Z,97330.94
2019-04-05T22:18:06.366Z,97329.13
2019-04-05T22:20:35.800Z,97327.42
2019-04-05T22:23:05.201Z,97323.94
2019-04-05T22:25:34.623Z,97321.09
2019-04-05T22:28:04.415Z,97321.74
2019-04-05T22:30:33.849Z,97322.25
2019-04-05T22:33:03.423Z,97321.83
2019-04-05T22:35:32.841Z,97318.83
2019-04-05T22:38:02.316Z,97311.88
2019-04-05T22:40:32.047Z,97317.19
2019-04-05T22:43:01.447Z,97310.23
2019-04-05T22:45:30.902Z,97316.93
2019-04-05T22:48:00.305Z,97309.56
2019-04-05T22:50:29.969Z,97316.62
2019-04-05T22:52:59.439Z,97315.45
2019-04-05T22:55:28.857Z,97317.70
2019-04-05T22:57:58.252Z,97317.34
2019-04-05T23:00:27.700Z,97319.57
2019-04-05T23:02:57.072Z,97311.79
2019-04-05T23:05:26.503Z,97313.16
2019-04-05T23:07:55.892Z,97312.73
2019-04-05T23:10:25.324Z,97309.75
2019-04-05T23:12:54.726Z,97303.64
2019-04-05T23:15:24.148Z,97304.58
2019-04-05T23:17:53.548Z,97309.87
2019-04-05T23:20:23.050Z,97304.78
2019-04-05T23:22:52.448Z,97298.64
2019-04-05T23:25:22.514Z,97306.19
2019-04-05T23:27:51.968Z,97303.83
2019-04-05T23:30:22.832Z,97305.27
2019-04-05T23:32:52.230Z,97312.02
2019-04-05T23:35:21.665Z,97307.45
2019-04-05T23:37:51.133Z,97308.82
2019-04-05T23:40:20.550Z,97306.58
2019-04-05T23:42:49.952Z,97303.28
2019-04-05T23:45:19.461Z,97310.86
2019-04-05T23:47:48.860Z,97307.11
2019-04-05T23:50:18.282Z,97309.22
2019-04-05T23:52:47.689Z,97312.91
2019-04-05T23:55:17.137Z,97311.42
2019-04-05T23:57:46.561Z,97309.84
